sensor_id;sensor_type;location;lat;lon;timestamp;P1;durP1;ratioP1;P2;durP2;ratioP2
4244;SDS011;2136;48.502;9.194;2023-02-20T00:01:49;6.97;;;3.10;;
4244;SDS011;2136;48.502;9.194;2023-02-20T00:04:18;6.43;;;3.90;;
4244;SDS011;2136;48.502;9.194;2023-02-20T00:06:45;7.57;;;2.77;;
4244;SDS011;2136;48.502;9.194;2023-02-20T00:09:12;10.43;;;2.70;;
4244;SDS011;2136;48.502;9.194;2023-02-20T00:11:39;7.03;;;2.67;;
4244;SDS011;2136;48.502;9.194;2023-02-20T00:14:07;11.20;;;2.90;;
4244;SDS011;2136;48.502;9.194;2023-02-20T00:16:34;5.50;;;2.50;;
4244;SDS011;2136;48.502;9.194;2023-02-20T00:19:01;4.40;;;2.77;;
4244;SDS011;2136;48.502;9.194;2023-02-20T00:21:28;6.70;;;2.93;;
4244;SDS011;2136;48.502;9.194;2023-02-20T00:23:55;11.47;;;2.83;;
4244;SDS011;2136;48.502;9.194;2023-02-20T00:26:22;3.53;;;2.60;;
4244;SDS011;2136;48.502;9.194;2023-02-20T00:28:49;2.87;;;2.57;;
4244;SDS011;2136;48.502;9.194;2023-02-20T00:31:17;8.98;;;3.17;;
4244;SDS011;2136;48.502;9.194;2023-02-20T00:33:44;3.83;;;3.37;;
4244;SDS011;2136;48.502;9.194;2023-02-20T00:36:13;4.90;;;2.20;;
4244;SDS011;2136;48.502;9.194;2023-02-20T00:38:41;5.07;;;3.60;;
4244;SDS011;2136;48.502;9.194;2023-02-20T00:41:08;4.13;;;2.30;;
4244;SDS011;2136;48.502;9.194;2023-02-20T00:43:35;6.80;;;2.73;;
4244;SDS011;2136;48.502;9.194;2023-02-20T00:46:03;8.20;;;2.60;;
4244;SDS011;2136;48.502;9.194;2023-02-20T00:48:31;4.10;;;2.90;;
4244;SDS011;2136;48.502;9.194;2023-02-20T00:50:58;5.00;;;3.10;;
4244;SDS011;2136;48.502;9.194;2023-02-20T00:53:25;4.50;;;2.30;;
4244;SDS011;2136;48.502;9.194;2023-02-20T00:55:51;6.00;;;2.63;;
4244;SDS011;2136;48.502;9.194;2023-02-20T00:58:18;5.83;;;2.37;;
4244;SDS011;2136;48.502;9.194;2023-02-20T01:00:45;3.70;;;2.53;;
4244;SDS011;2136;48.502;9.194;2023-02-20T01:03:12;11.10;;;3.00;;
4244;SDS011;2136;48.502;9.194;2023-02-20T01:05:40;5.20;;;2.63;;
4244;SDS011;2136;48.502;9.194;2023-02-20T01:08:07;3.00;;;2.50;;
4244;SDS011;2136;48.502;9.194;2023-02-20T01:10:34;5.00;;;3.83;;
4244;SDS011;2136;48.502;9.194;2023-02-20T01:13:00;2.73;;;2.47;;
4244;SDS011;2136;48.502;9.194;2023-02-20T01:15:27;9.17;;;2.77;;
4244;SDS011;2136;48.502;9.194;2023-02-20T01:17:54;6.70;;;4.23;;
4244;SDS011;2136;48.502;9.194;2023-02-20T01:20:21;4.77;;;3.20;;
4244;SDS011;2136;48.502;9.194;2023-02-20T01:22:49;5.43;;;3.47;;
4244;SDS011;2136;48.502;9.194;2023-02-20T01:25:17;5.27;;;2.70;;
4244;SDS011;2136;48.502;9.194;2023-02-20T01:27:44;5.93;;;2.87;;
4244;SDS011;2136;48.502;9.194;2023-02-20T01:30:11;4.57;;;2.70;;
4244;SDS011;2136;48.502;9.194;2023-02-20T01:32:38;6.27;;;3.10;;
4244;SDS011;2136;48.502;9.194;2023-02-20T01:35:05;3.90;;;3.60;;
4244;SDS011;2136;48.502;9.194;2023-02-20T01:37:32;3.43;;;2.83;;
4244;SDS011;2136;48.502;9.194;2023-02-20T01:40:00;13.03;;;3.40;;
4244;SDS011;2136;48.502;9.194;2023-02-20T01:42:28;9.93;;;3.43;;
4244;SDS011;2136;48.502;9.194;2023-02-20T01:47:43;10.83;;;3.83;;
4244;SDS011;2136;48.502;9.194;2023-02-20T01:50:10;7.03;;;3.73;;
4244;SDS011;2136;48.502;9.194;2023-02-20T01:52:38;4.97;;;2.80;;
4244;SDS011;2136;48.502;9.194;2023-02-20T01:55:10;5.70;;;3.33;;
4244;SDS011;2136;48.502;9.194;2023-02-20T01:57:53;8.53;;;3.10;;
4244;SDS011;2136;48.502;9.194;2023-02-20T02:00:22;5.57;;;2.50;;
4244;SDS011;2136;48.502;9.194;2023-02-20T02:02:51;6.80;;;2.30;;
4244;SDS011;2136;48.502;9.194;2023-02-20T02:05:22;3.70;;;2.80;;
4244;SDS011;2136;48.502;9.194;2023-02-20T02:07:50;11.00;;;3.10;;
4244;SDS011;2136;48.502;9.194;2023-02-20T02:10:19;3.17;;;2.37;;
4244;SDS011;2136;48.502;9.194;2023-02-20T02:12:50;10.40;;;2.83;;
4244;SDS011;2136;48.502;9.194;2023-02-20T02:15:20;5.77;;;2.87;;
4244;SDS011;2136;48.502;9.194;2023-02-20T02:17:58;4.30;;;2.20;;
4244;SDS011;2136;48.502;9.194;2023-02-20T02:23:54;9.43;;;2.70;;
4244;SDS011;2136;48.502;9.194;2023-02-20T02:36:05;6.45;;;2.92;;
4244;SDS011;2136;48.502;9.194;2023-02-20T02:38:44;3.93;;;2.67;;
4244;SDS011;2136;48.502;9.194;2023-02-20T02:41:17;10.00;;;2.90;;
4244;SDS011;2136;48.502;9.194;2023-02-20T02:43:49;5.67;;;2.40;;
4244;SDS011;2136;48.502;9.194;2023-02-20T02:46:21;6.00;;;2.80;;
4244;SDS011;2136;48.502;9.194;2023-02-20T02:48:55;13.70;;;3.40;;
4244;SDS011;2136;48.502;9.194;2023-02-20T02:51:31;6.20;;;2.70;;
4244;SDS011;2136;48.502;9.194;2023-02-20T02:54:04;6.87;;;2.97;;
4244;SDS011;2136;48.502;9.194;2023-02-20T02:56:36;6.60;;;3.27;;
4244;SDS011;2136;48.502;9.194;2023-02-20T02:59:04;11.20;;;3.10;;
4244;SDS011;2136;48.502;9.194;2023-02-20T03:01:35;6.43;;;3.20;;
4244;SDS011;2136;48.502;9.194;2023-02-20T03:04:06;5.47;;;3.10;;
4244;SDS011;2136;48.502;9.194;2023-02-20T03:06:38;8.47;;;2.97;;
4244;SDS011;2136;48.502;9.194;2023-02-20T03:09:10;5.43;;;3.17;;
4244;SDS011;2136;48.502;9.194;2023-02-20T03:11:40;4.33;;;2.60;;
4244;SDS011;2136;48.502;9.194;2023-02-20T03:14:09;11.23;;;3.53;;
4244;SDS011;2136;48.502;9.194;2023-02-20T03:16:58;7.07;;;2.87;;
4244;SDS011;2136;48.502;9.194;2023-02-20T03:19:35;4.50;;;2.77;;
4244;SDS011;2136;48.502;9.194;2023-02-20T03:22:09;4.63;;;2.90;;
4244;SDS011;2136;48.502;9.194;2023-02-20T03:24:39;5.83;;;2.70;;
4244;SDS011;2136;48.502;9.194;2023-02-20T03:27:21;9.13;;;3.27;;
4244;SDS011;2136;48.502;9.194;2023-02-20T03:29:51;7.70;;;3.10;;
4244;SDS011;2136;48.502;9.194;2023-02-20T03:32:23;7.63;;;3.00;;
4244;SDS011;2136;48.502;9.194;2023-02-20T03:35:10;3.57;;;2.70;;
4244;SDS011;2136;48.502;9.194;2023-02-20T03:37:57;5.27;;;2.27;;
4244;SDS011;2136;48.502;9.194;2023-02-20T03:40:45;9.23;;;3.80;;
4244;SDS011;2136;48.502;9.194;2023-02-20T03:43:31;3.40;;;2.77;;
4244;SDS011;2136;48.502;9.194;2023-02-20T03:46:00;5.50;;;2.90;;
4244;SDS011;2136;48.502;9.194;2023-02-20T03:48:32;6.70;;;3.03;;
4244;SDS011;2136;48.502;9.194;2023-02-20T03:51:03;7.13;;;3.53;;
4244;SDS011;2136;48.502;9.194;2023-02-20T03:53:31;10.37;;;3.63;;
4244;SDS011;2136;48.502;9.194;2023-02-20T03:55:59;5.50;;;2.80;;
4244;SDS011;2136;48.502;9.194;2023-02-20T03:58:30;5.50;;;2.60;;
4244;SDS011;2136;48.502;9.194;2023-02-20T04:00:59;10.20;;;3.53;;
4244;SDS011;2136;48.502;9.194;2023-02-20T04:03:29;7.90;;;2.67;;
4244;SDS011;2136;48.502;9.194;2023-02-20T04:06:03;4.50;;;3.17;;
4244;SDS011;2136;48.502;9.194;2023-02-20T04:08:34;5.93;;;3.63;;
4244;SDS011;2136;48.502;9.194;2023-02-20T04:11:05;6.00;;;2.63;;
4244;SDS011;2136;48.502;9.194;2023-02-20T04:13:35;11.43;;;2.83;;
4244;SDS011;2136;48.502;9.194;2023-02-20T04:16:04;3.57;;;2.80;;
4244;SDS011;2136;48.502;9.194;2023-02-20T04:18:31;4.83;;;2.83;;
4244;SDS011;2136;48.502;9.194;2023-02-20T04:20:59;4.30;;;2.63;;
4244;SDS011;2136;48.502;9.194;2023-02-20T04:23:29;4.83;;;2.90;;
4244;SDS011;2136;48.502;9.194;2023-02-20T04:26:03;10.80;;;2.87;;
4244;SDS011;2136;48.502;9.194;2023-02-20T04:28:33;4.67;;;3.40;;
4244;SDS011;2136;48.502;9.194;2023-02-20T04:31:00;6.17;;;3.10;;
4244;SDS011;2136;48.502;9.194;2023-02-20T04:33:27;4.40;;;3.20;;
4244;SDS011;2136;48.502;9.194;2023-02-20T04:35:54;4.23;;;2.97;;
4244;SDS011;2136;48.502;9.194;2023-02-20T04:38:22;6.47;;;3.13;;
4244;SDS011;2136;48.502;9.194;2023-02-20T04:40:49;4.03;;;3.53;;
4244;SDS011;2136;48.502;9.194;2023-02-20T04:43:17;3.73;;;3.00;;
4244;SDS011;2136;48.502;9.194;2023-02-20T04:45:44;13.50;;;4.60;;
4244;SDS011;2136;48.502;9.194;2023-02-20T04:48:11;3.30;;;3.00;;
4244;SDS011;2136;48.502;9.194;2023-02-20T04:50:38;9.13;;;2.80;;
4244;SDS011;2136;48.502;9.194;2023-02-20T04:53:05;5.03;;;3.73;;
4244;SDS011;2136;48.502;9.194;2023-02-20T04:55:32;4.87;;;3.17;;
4244;SDS011;2136;48.502;9.194;2023-02-20T04:57:59;3.80;;;3.13;;
4244;SDS011;2136;48.502;9.194;2023-02-20T05:00:27;6.10;;;3.67;;
4244;SDS011;2136;48.502;9.194;2023-02-20T05:02:54;7.40;;;3.60;;
4244;SDS011;2136;48.502;9.194;2023-02-20T05:05:23;5.37;;;3.57;;
4244;SDS011;2136;48.502;9.194;2023-02-20T05:07:52;5.17;;;3.40;;
4244;SDS011;2136;48.502;9.194;2023-02-20T05:10:20;7.20;;;3.70;;
4244;SDS011;2136;48.502;9.194;2023-02-20T05:12:48;4.30;;;3.50;;
4244;SDS011;2136;48.502;9.194;2023-02-20T05:15:16;12.57;;;4.10;;
4244;SDS011;2136;48.502;9.194;2023-02-20T05:17:45;8.47;;;3.43;;
4244;SDS011;2136;48.502;9.194;2023-02-20T05:20:12;5.37;;;3.73;;
4244;SDS011;2136;48.502;9.194;2023-02-20T05:22:40;7.23;;;4.20;;
4244;SDS011;2136;48.502;9.194;2023-02-20T05:25:06;7.47;;;4.00;;
4244;SDS011;2136;48.502;9.194;2023-02-20T05:27:33;11.03;;;3.73;;
4244;SDS011;2136;48.502;9.194;2023-02-20T05:30:00;6.83;;;3.40;;
4244;SDS011;2136;48.502;9.194;2023-02-20T05:32:28;7.27;;;4.20;;
4244;SDS011;2136;48.502;9.194;2023-02-20T05:34:57;9.70;;;4.40;;
4244;SDS011;2136;48.502;9.194;2023-02-20T05:37:25;9.90;;;4.03;;
4244;SDS011;2136;48.502;9.194;2023-02-20T05:39:52;6.33;;;3.67;;
4244;SDS011;2136;48.502;9.194;2023-02-20T05:42:19;5.80;;;3.97;;
4244;SDS011;2136;48.502;9.194;2023-02-20T05:44:47;7.83;;;4.60;;
4244;SDS011;2136;48.502;9.194;2023-02-20T05:47:14;9.10;;;4.70;;
4244;SDS011;2136;48.502;9.194;2023-02-20T05:49:41;14.43;;;4.60;;
4244;SDS011;2136;48.502;9.194;2023-02-20T05:52:11;7.67;;;4.07;;
4244;SDS011;2136;48.502;9.194;2023-02-20T05:54:38;4.03;;;3.47;;
4244;SDS011;2136;48.502;9.194;2023-02-20T05:57:06;8.37;;;4.83;;
4244;SDS011;2136;48.502;9.194;2023-02-20T05:59:33;8.80;;;3.70;;
4244;SDS011;2136;48.502;9.194;2023-02-20T06:02:00;7.30;;;4.43;;
4244;SDS011;2136;48.502;9.194;2023-02-20T06:04:28;6.03;;;3.50;;
4244;SDS011;2136;48.502;9.194;2023-02-20T06:06:55;9.57;;;4.35;;
4244;SDS011;2136;48.502;9.194;2023-02-20T06:09:23;7.47;;;4.50;;
4244;SDS011;2136;48.502;9.194;2023-02-20T06:11:50;6.80;;;3.47;;
4244;SDS011;2136;48.502;9.194;2023-02-20T06:14:19;11.00;;;3.30;;
4244;SDS011;2136;48.502;9.194;2023-02-20T06:16:47;8.63;;;4.13;;
4244;SDS011;2136;48.502;9.194;2023-02-20T06:19:16;5.03;;;3.70;;
4244;SDS011;2136;48.502;9.194;2023-02-20T06:21:44;6.80;;;3.10;;
4244;SDS011;2136;48.502;9.194;2023-02-20T06:24:11;4.40;;;3.67;;
4244;SDS011;2136;48.502;9.194;2023-02-20T06:26:40;9.67;;;4.30;;
4244;SDS011;2136;48.502;9.194;2023-02-20T06:29:07;9.33;;;4.27;;
4244;SDS011;2136;48.502;9.194;2023-02-20T06:31:34;4.87;;;4.27;;
4244;SDS011;2136;48.502;9.194;2023-02-20T06:34:01;6.70;;;4.13;;
4244;SDS011;2136;48.502;9.194;2023-02-20T06:36:29;9.27;;;4.87;;
4244;SDS011;2136;48.502;9.194;2023-02-20T06:38:58;8.37;;;4.40;;
4244;SDS011;2136;48.502;9.194;2023-02-20T06:41:25;8.20;;;4.37;;
4244;SDS011;2136;48.502;9.194;2023-02-20T06:43:53;4.80;;;3.90;;
4244;SDS011;2136;48.502;9.194;2023-02-20T06:46:20;13.33;;;4.27;;
4244;SDS011;2136;48.502;9.194;2023-02-20T06:48:48;6.30;;;4.40;;
4244;SDS011;2136;48.502;9.194;2023-02-20T06:51:16;9.77;;;4.93;;
4244;SDS011;2136;48.502;9.194;2023-02-20T06:53:43;6.77;;;3.87;;
4244;SDS011;2136;48.502;9.194;2023-02-20T06:56:13;7.40;;;4.07;;
4244;SDS011;2136;48.502;9.194;2023-02-20T06:58:42;19.33;;;5.50;;
4244;SDS011;2136;48.502;9.194;2023-02-20T07:01:12;14.83;;;4.73;;
4244;SDS011;2136;48.502;9.194;2023-02-20T07:03:38;13.80;;;4.87;;
4244;SDS011;2136;48.502;9.194;2023-02-20T07:06:05;13.50;;;4.57;;
4244;SDS011;2136;48.502;9.194;2023-02-20T07:08:32;9.90;;;4.40;;
4244;SDS011;2136;48.502;9.194;2023-02-20T07:10:59;11.37;;;4.53;;
4244;SDS011;2136;48.502;9.194;2023-02-20T07:13:26;11.37;;;5.20;;
4244;SDS011;2136;48.502;9.194;2023-02-20T07:15:53;7.80;;;5.17;;
4244;SDS011;2136;48.502;9.194;2023-02-20T07:18:21;12.77;;;7.00;;
4244;SDS011;2136;48.502;9.194;2023-02-20T07:20:49;8.30;;;4.43;;
4244;SDS011;2136;48.502;9.194;2023-02-20T07:23:16;7.90;;;4.90;;
4244;SDS011;2136;48.502;9.194;2023-02-20T07:25:43;5.90;;;4.40;;
4244;SDS011;2136;48.502;9.194;2023-02-20T07:28:11;4.90;;;4.17;;
4244;SDS011;2136;48.502;9.194;2023-02-20T07:30:38;10.93;;;4.83;;
4244;SDS011;2136;48.502;9.194;2023-02-20T07:33:05;11.73;;;5.40;;
4244;SDS011;2136;48.502;9.194;2023-02-20T07:35:33;6.87;;;4.90;;
4244;SDS011;2136;48.502;9.194;2023-02-20T07:38:00;9.77;;;4.10;;
4244;SDS011;2136;48.502;9.194;2023-02-20T07:40:27;15.33;;;4.20;;
4244;SDS011;2136;48.502;9.194;2023-02-20T07:42:54;8.17;;;4.67;;
4244;SDS011;2136;48.502;9.194;2023-02-20T07:45:21;6.77;;;4.03;;
4244;SDS011;2136;48.502;9.194;2023-02-20T07:47:48;9.30;;;4.70;;
4244;SDS011;2136;48.502;9.194;2023-02-20T07:50:15;9.50;;;4.90;;
4244;SDS011;2136;48.502;9.194;2023-02-20T07:52:44;8.03;;;4.37;;
4244;SDS011;2136;48.502;9.194;2023-02-20T07:55:12;10.87;;;4.37;;
4244;SDS011;2136;48.502;9.194;2023-02-20T07:57:40;9.20;;;4.10;;
4244;SDS011;2136;48.502;9.194;2023-02-20T08:00:08;8.57;;;4.30;;
4244;SDS011;2136;48.502;9.194;2023-02-20T08:02:39;5.90;;;3.87;;
4244;SDS011;2136;48.502;9.194;2023-02-20T08:05:06;7.70;;;3.83;;
4244;SDS011;2136;48.502;9.194;2023-02-20T08:07:33;5.20;;;4.07;;
4244;SDS011;2136;48.502;9.194;2023-02-20T08:10:01;4.43;;;3.37;;
4244;SDS011;2136;48.502;9.194;2023-02-20T08:12:29;8.17;;;3.50;;
4244;SDS011;2136;48.502;9.194;2023-02-20T08:14:55;3.73;;;2.70;;
4244;SDS011;2136;48.502;9.194;2023-02-20T08:17:22;2.27;;;2.07;;
4244;SDS011;2136;48.502;9.194;2023-02-20T08:19:49;6.10;;;2.70;;
4244;SDS011;2136;48.502;9.194;2023-02-20T08:22:16;7.17;;;2.43;;
4244;SDS011;2136;48.502;9.194;2023-02-20T08:24:43;7.33;;;3.07;;
4244;SDS011;2136;48.502;9.194;2023-02-20T08:27:11;4.73;;;2.40;;
4244;SDS011;2136;48.502;9.194;2023-02-20T08:29:37;7.13;;;2.40;;
4244;SDS011;2136;48.502;9.194;2023-02-20T08:32:04;2.63;;;2.43;;
4244;SDS011;2136;48.502;9.194;2023-02-20T08:34:31;2.90;;;2.10;;
4244;SDS011;2136;48.502;9.194;2023-02-20T08:36:58;5.93;;;2.07;;
4244;SDS011;2136;48.502;9.194;2023-02-20T08:39:25;4.70;;;2.30;;
4244;SDS011;2136;48.502;9.194;2023-02-20T08:41:52;6.57;;;2.27;;
4244;SDS011;2136;48.502;9.194;2023-02-20T08:44:20;3.07;;;2.77;;
4244;SDS011;2136;48.502;9.194;2023-02-20T08:46:47;3.30;;;2.40;;
4244;SDS011;2136;48.502;9.194;2023-02-20T08:49:14;4.27;;;2.03;;
4244;SDS011;2136;48.502;9.194;2023-02-20T08:51:42;4.90;;;2.60;;
4244;SDS011;2136;48.502;9.194;2023-02-20T08:54:09;4.27;;;2.20;;
4244;SDS011;2136;48.502;9.194;2023-02-20T08:56:36;4.97;;;2.10;;
4244;SDS011;2136;48.502;9.194;2023-02-20T08:59:04;4.20;;;2.37;;
4244;SDS011;2136;48.502;9.194;2023-02-20T09:01:32;3.63;;;1.83;;
4244;SDS011;2136;48.502;9.194;2023-02-20T09:03:59;3.33;;;2.00;;
4244;SDS011;2136;48.502;9.194;2023-02-20T09:06:26;3.93;;;2.00;;
4244;SDS011;2136;48.502;9.194;2023-02-20T09:08:53;5.20;;;2.30;;
4244;SDS011;2136;48.502;9.194;2023-02-20T09:11:20;5.17;;;2.30;;
4244;SDS011;2136;48.502;9.194;2023-02-20T09:13:47;2.60;;;2.33;;
4244;SDS011;2136;48.502;9.194;2023-02-20T09:16:17;7.53;;;2.83;;
4244;SDS011;2136;48.502;9.194;2023-02-20T09:18:46;8.30;;;1.77;;
4244;SDS011;2136;48.502;9.194;2023-02-20T09:21:15;2.93;;;1.77;;
4244;SDS011;2136;48.502;9.194;2023-02-20T09:23:44;2.03;;;1.57;;
4244;SDS011;2136;48.502;9.194;2023-02-20T09:26:11;3.40;;;1.67;;
4244;SDS011;2136;48.502;9.194;2023-02-20T09:28:38;8.30;;;2.10;;
4244;SDS011;2136;48.502;9.194;2023-02-20T09:31:05;4.33;;;1.90;;
4244;SDS011;2136;48.502;9.194;2023-02-20T09:33:32;3.37;;;1.67;;
4244;SDS011;2136;48.502;9.194;2023-02-20T09:36:01;8.05;;;2.45;;
4244;SDS011;2136;48.502;9.194;2023-02-20T09:38:27;4.83;;;3.33;;
4244;SDS011;2136;48.502;9.194;2023-02-20T09:40:55;3.00;;;1.57;;
4244;SDS011;2136;48.502;9.194;2023-02-20T09:43:28;2.27;;;1.80;;
4244;SDS011;2136;48.502;9.194;2023-02-20T09:46:03;3.83;;;1.83;;
4244;SDS011;2136;48.502;9.194;2023-02-20T09:48:40;3.70;;;1.73;;
4244;SDS011;2136;48.502;9.194;2023-02-20T09:51:18;2.37;;;2.00;;
4244;SDS011;2136;48.502;9.194;2023-02-20T09:53:49;3.97;;;1.57;;
4244;SDS011;2136;48.502;9.194;2023-02-20T09:56:20;3.13;;;1.57;;
4244;SDS011;2136;48.502;9.194;2023-02-20T09:58:51;4.43;;;1.70;;
4244;SDS011;2136;48.502;9.194;2023-02-20T10:01:24;4.13;;;1.50;;
4244;SDS011;2136;48.502;9.194;2023-02-20T10:03:54;2.13;;;1.60;;
4244;SDS011;2136;48.502;9.194;2023-02-20T10:06:25;7.87;;;1.97;;
4244;SDS011;2136;48.502;9.194;2023-02-20T10:08:53;1.90;;;1.17;;
4244;SDS011;2136;48.502;9.194;2023-02-20T10:11:27;4.63;;;1.80;;
4244;SDS011;2136;48.502;9.194;2023-02-20T10:17:17;4.07;;;1.90;;
4244;SDS011;2136;48.502;9.194;2023-02-20T10:19:52;3.37;;;1.80;;
4244;SDS011;2136;48.502;9.194;2023-02-20T10:22:27;3.53;;;1.40;;
4244;SDS011;2136;48.502;9.194;2023-02-20T10:25:01;4.93;;;2.03;;
4244;SDS011;2136;48.502;9.194;2023-02-20T10:27:38;5.67;;;2.40;;
4244;SDS011;2136;48.502;9.194;2023-02-20T10:30:12;3.63;;;1.23;;
4244;SDS011;2136;48.502;9.194;2023-02-20T10:32:44;2.40;;;1.20;;
4244;SDS011;2136;48.502;9.194;2023-02-20T10:35:17;6.23;;;1.70;;
4244;SDS011;2136;48.502;9.194;2023-02-20T10:37:51;3.80;;;1.20;;
4244;SDS011;2136;48.502;9.194;2023-02-20T10:40:21;2.33;;;1.30;;
4244;SDS011;2136;48.502;9.194;2023-02-20T10:42:53;2.20;;;1.80;;
4244;SDS011;2136;48.502;9.194;2023-02-20T10:45:29;5.00;;;1.67;;
4244;SDS011;2136;48.502;9.194;2023-02-20T10:48:03;7.23;;;1.83;;
4244;SDS011;2136;48.502;9.194;2023-02-20T10:50:34;2.47;;;2.03;;
4244;SDS011;2136;48.502;9.194;2023-02-20T10:53:08;9.00;;;1.97;;
4244;SDS011;2136;48.502;9.194;2023-02-20T10:55:43;3.13;;;1.37;;
4244;SDS011;2136;48.502;9.194;2023-02-20T10:58:15;2.63;;;2.30;;
4244;SDS011;2136;48.502;9.194;2023-02-20T11:00:48;1.87;;;1.30;;
4244;SDS011;2136;48.502;9.194;2023-02-20T11:03:19;2.57;;;1.50;;
4244;SDS011;2136;48.502;9.194;2023-02-20T11:05:52;4.70;;;1.33;;
4244;SDS011;2136;48.502;9.194;2023-02-20T11:08:22;2.73;;;1.60;;
4244;SDS011;2136;48.502;9.194;2023-02-20T11:10:49;5.60;;;1.87;;
4244;SDS011;2136;48.502;9.194;2023-02-20T11:13:23;4.43;;;1.77;;
4244;SDS011;2136;48.502;9.194;2023-02-20T11:15:52;4.20;;;1.70;;
4244;SDS011;2136;48.502;9.194;2023-02-20T11:18:22;1.80;;;1.40;;
4244;SDS011;2136;48.502;9.194;2023-02-20T11:20:52;5.07;;;1.80;;
4244;SDS011;2136;48.502;9.194;2023-02-20T11:23:38;2.63;;;1.10;;
4244;SDS011;2136;48.502;9.194;2023-02-20T11:26:13;1.50;;;1.40;;
4244;SDS011;2136;48.502;9.194;2023-02-20T11:28:53;1.30;;;1.20;;
4244;SDS011;2136;48.502;9.194;2023-02-20T11:31:25;1.93;;;1.60;;
4244;SDS011;2136;48.502;9.194;2023-02-20T11:33:53;2.80;;;1.10;;
4244;SDS011;2136;48.502;9.194;2023-02-20T11:36:21;1.93;;;1.30;;
4244;SDS011;2136;48.502;9.194;2023-02-20T11:38:56;4.13;;;1.67;;
4244;SDS011;2136;48.502;9.194;2023-02-20T11:41:26;2.70;;;1.27;;
4244;SDS011;2136;48.502;9.194;2023-02-20T11:44:04;2.83;;;1.17;;
4244;SDS011;2136;48.502;9.194;2023-02-20T11:46:35;2.63;;;1.30;;
4244;SDS011;2136;48.502;9.194;2023-02-20T11:49:05;1.33;;;1.00;;
4244;SDS011;2136;48.502;9.194;2023-02-20T11:51:35;1.87;;;1.40;;
4244;SDS011;2136;48.502;9.194;2023-02-20T11:54:08;3.00;;;1.80;;
4244;SDS011;2136;48.502;9.194;2023-02-20T11:56:52;3.38;;;1.30;;
4244;SDS011;2136;48.502;9.194;2023-02-20T11:59:26;3.17;;;1.40;;
4244;SDS011;2136;48.502;9.194;2023-02-20T12:02:19;1.63;;;1.40;;
4244;SDS011;2136;48.502;9.194;2023-02-20T12:05:09;1.37;;;1.20;;
4244;SDS011;2136;48.502;9.194;2023-02-20T12:07:39;1.87;;;1.00;;
4244;SDS011;2136;48.502;9.194;2023-02-20T12:10:24;3.27;;;1.20;;
4244;SDS011;2136;48.502;9.194;2023-02-20T12:13:06;2.33;;;1.20;;
4244;SDS011;2136;48.502;9.194;2023-02-20T12:15:38;4.93;;;2.30;;
4244;SDS011;2136;48.502;9.194;2023-02-20T12:18:11;1.97;;;1.03;;
4244;SDS011;2136;48.502;9.194;2023-02-20T12:21:02;3.13;;;1.00;;
4244;SDS011;2136;48.502;9.194;2023-02-20T12:23:38;3.23;;;0.90;;
4244;SDS011;2136;48.502;9.194;2023-02-20T12:26:21;3.43;;;1.20;;
4244;SDS011;2136;48.502;9.194;2023-02-20T12:28:58;1.50;;;0.83;;
4244;SDS011;2136;48.502;9.194;2023-02-20T12:31:49;1.60;;;1.10;;
4244;SDS011;2136;48.502;9.194;2023-02-20T12:34:25;4.30;;;1.00;;
4244;SDS011;2136;48.502;9.194;2023-02-20T12:37:01;2.43;;;0.90;;
4244;SDS011;2136;48.502;9.194;2023-02-20T12:39:36;2.30;;;0.90;;
4244;SDS011;2136;48.502;9.194;2023-02-20T12:42:15;0.87;;;0.83;;
4244;SDS011;2136;48.502;9.194;2023-02-20T12:44:57;9.40;;;1.30;;
4244;SDS011;2136;48.502;9.194;2023-02-20T12:47:33;2.23;;;1.10;;
4244;SDS011;2136;48.502;9.194;2023-02-20T12:53:02;3.33;;;1.23;;
4244;SDS011;2136;48.502;9.194;2023-02-20T12:55:36;1.67;;;1.33;;
4244;SDS011;2136;48.502;9.194;2023-02-20T12:58:19;1.70;;;1.03;;
4244;SDS011;2136;48.502;9.194;2023-02-20T13:00:57;1.80;;;1.10;;
4244;SDS011;2136;48.502;9.194;2023-02-20T13:03:31;4.80;;;1.30;;
4244;SDS011;2136;48.502;9.194;2023-02-20T13:06:05;1.90;;;1.10;;
4244;SDS011;2136;48.502;9.194;2023-02-20T13:08:33;4.33;;;1.33;;
4244;SDS011;2136;48.502;9.194;2023-02-20T13:11:09;2.20;;;0.90;;
4244;SDS011;2136;48.502;9.194;2023-02-20T13:13:47;1.10;;;0.90;;
4244;SDS011;2136;48.502;9.194;2023-02-20T13:16:25;1.97;;;1.00;;
4244;SDS011;2136;48.502;9.194;2023-02-20T13:18:58;1.57;;;1.00;;
4244;SDS011;2136;48.502;9.194;2023-02-20T13:21:31;0.87;;;0.87;;
4244;SDS011;2136;48.502;9.194;2023-02-20T13:26:54;3.37;;;0.90;;
4244;SDS011;2136;48.502;9.194;2023-02-20T13:29:24;1.07;;;0.97;;
4244;SDS011;2136;48.502;9.194;2023-02-20T13:31:54;3.07;;;1.40;;
4244;SDS011;2136;48.502;9.194;2023-02-20T13:34:26;3.40;;;1.10;;
4244;SDS011;2136;48.502;9.194;2023-02-20T13:36:56;5.30;;;0.93;;
4244;SDS011;2136;48.502;9.194;2023-02-20T13:39:33;2.30;;;1.37;;
4244;SDS011;2136;48.502;9.194;2023-02-20T13:42:02;3.20;;;1.20;;
4244;SDS011;2136;48.502;9.194;2023-02-20T13:44:44;1.17;;;1.10;;
4244;SDS011;2136;48.502;9.194;2023-02-20T13:50:02;1.00;;;1.00;;
4244;SDS011;2136;48.502;9.194;2023-02-20T13:52:45;3.17;;;0.93;;
4244;SDS011;2136;48.502;9.194;2023-02-20T13:55:21;1.37;;;1.03;;
4244;SDS011;2136;48.502;9.194;2023-02-20T13:57:51;4.93;;;0.83;;
4244;SDS011;2136;48.502;9.194;2023-02-20T14:00:26;2.00;;;0.90;;
4244;SDS011;2136;48.502;9.194;2023-02-20T14:02:55;2.30;;;1.30;;
4244;SDS011;2136;48.502;9.194;2023-02-20T14:05:23;1.10;;;0.80;;
4244;SDS011;2136;48.502;9.194;2023-02-20T14:07:52;1.20;;;0.80;;
4244;SDS011;2136;48.502;9.194;2023-02-20T14:10:23;1.33;;;1.10;;
4244;SDS011;2136;48.502;9.194;2023-02-20T14:12:54;2.40;;;0.80;;
4244;SDS011;2136;48.502;9.194;2023-02-20T14:15:25;1.50;;;0.97;;
4244;SDS011;2136;48.502;9.194;2023-02-20T14:17:55;2.03;;;1.40;;
4244;SDS011;2136;48.502;9.194;2023-02-20T14:20:24;1.10;;;1.00;;
4244;SDS011;2136;48.502;9.194;2023-02-20T14:23:06;2.10;;;0.90;;
4244;SDS011;2136;48.502;9.194;2023-02-20T14:25:34;1.27;;;0.90;;
4244;SDS011;2136;48.502;9.194;2023-02-20T14:28:06;1.00;;;0.90;;
4244;SDS011;2136;48.502;9.194;2023-02-20T14:30:40;1.37;;;0.90;;
4244;SDS011;2136;48.502;9.194;2023-02-20T14:33:17;1.30;;;1.10;;
4244;SDS011;2136;48.502;9.194;2023-02-20T14:38:58;3.03;;;1.40;;
4244;SDS011;2136;48.502;9.194;2023-02-20T14:41:34;1.30;;;1.10;;
4244;SDS011;2136;48.502;9.194;2023-02-20T14:44:03;1.47;;;1.37;;
4244;SDS011;2136;48.502;9.194;2023-02-20T14:46:41;1.20;;;1.00;;
4244;SDS011;2136;48.502;9.194;2023-02-20T14:49:09;1.63;;;1.20;;
4244;SDS011;2136;48.502;9.194;2023-02-20T14:51:39;1.47;;;1.00;;
4244;SDS011;2136;48.502;9.194;2023-02-20T14:54:15;0.97;;;0.80;;
4244;SDS011;2136;48.502;9.194;2023-02-20T14:56:44;1.50;;;1.07;;
4244;SDS011;2136;48.502;9.194;2023-02-20T14:59:22;2.10;;;1.10;;
4244;SDS011;2136;48.502;9.194;2023-02-20T15:01:55;2.40;;;1.03;;
4244;SDS011;2136;48.502;9.194;2023-02-20T15:04:24;1.53;;;1.20;;
4244;SDS011;2136;48.502;9.194;2023-02-20T15:06:52;1.60;;;1.33;;
4244;SDS011;2136;48.502;9.194;2023-02-20T15:09:33;2.00;;;1.27;;
4244;SDS011;2136;48.502;9.194;2023-02-20T15:12:02;1.80;;;1.50;;
4244;SDS011;2136;48.502;9.194;2023-02-20T15:14:33;2.27;;;1.10;;
4244;SDS011;2136;48.502;9.194;2023-02-20T15:17:17;1.57;;;1.30;;
4244;SDS011;2136;48.502;9.194;2023-02-20T15:19:47;2.23;;;1.60;;
4244;SDS011;2136;48.502;9.194;2023-02-20T15:22:20;2.60;;;1.27;;
4244;SDS011;2136;48.502;9.194;2023-02-20T15:24:53;5.20;;;1.33;;
4244;SDS011;2136;48.502;9.194;2023-02-20T15:27:20;2.57;;;1.27;;
4244;SDS011;2136;48.502;9.194;2023-02-20T15:30:09;0.97;;;0.93;;
4244;SDS011;2136;48.502;9.194;2023-02-20T15:32:42;3.27;;;1.57;;
4244;SDS011;2136;48.502;9.194;2023-02-20T15:35:17;3.07;;;1.83;;
4244;SDS011;2136;48.502;9.194;2023-02-20T15:37:46;3.33;;;1.60;;
4244;SDS011;2136;48.502;9.194;2023-02-20T15:40:18;4.57;;;1.50;;
4244;SDS011;2136;48.502;9.194;2023-02-20T15:42:47;2.67;;;1.37;;
4244;SDS011;2136;48.502;9.194;2023-02-20T15:45:20;2.43;;;2.07;;
4244;SDS011;2136;48.502;9.194;2023-02-20T15:47:48;1.37;;;1.27;;
4244;SDS011;2136;48.502;9.194;2023-02-20T15:50:15;5.27;;;1.00;;
4244;SDS011;2136;48.502;9.194;2023-02-20T15:52:42;2.93;;;0.77;;
4244;SDS011;2136;48.502;9.194;2023-02-20T15:55:12;1.67;;;1.20;;
4244;SDS011;2136;48.502;9.194;2023-02-20T15:57:41;1.33;;;1.23;;
4244;SDS011;2136;48.502;9.194;2023-02-20T16:00:10;2.37;;;1.03;;
4244;SDS011;2136;48.502;9.194;2023-02-20T16:02:44;5.47;;;1.13;;
4244;SDS011;2136;48.502;9.194;2023-02-20T16:05:12;4.57;;;1.00;;
4244;SDS011;2136;48.502;9.194;2023-02-20T16:07:39;2.60;;;0.97;;